createdAt,value
2022-12-03T00:00:53.146Z,32.97
2022-12-03T00:03:22.247Z,30.48
2022-12-03T00:05:49.441Z,35.30
2022-12-03T00:08:21.000Z,29.73
2022-12-03T00:10:47.783Z,36.03
2022-12-03T00:13:14.452Z,39.70
2022-12-03T00:15:45.672Z,35.10
2022-12-03T00:18:12.674Z,38.97
2022-12-03T00:20:41.633Z,37.03
2022-12-03T00:23:13.011Z,42.53
2022-12-03T00:25:42.073Z,37.78
2022-12-03T00:28:08.683Z,36.05
2022-12-03T00:30:35.381Z,32.80
2022-12-03T00:33:04.301Z,28.33
2022-12-03T00:35:31.003Z,38.80
2022-12-03T00:38:04.804Z,37.28
2022-12-03T00:40:35.027Z,33.22
2022-12-03T00:43:04.216Z,35.53
2022-12-03T00:45:33.270Z,35.22
2022-12-03T00:48:02.315Z,39.83
2022-12-03T00:50:31.358Z,37.40
2022-12-03T00:53:01.388Z,33.67
2022-12-03T00:55:28.107Z,37.92
2022-12-03T00:57:57.025Z,37.22
2022-12-03T01:00:25.434Z,36.10
2022-12-03T01:02:55.105Z,41.28
2022-12-03T01:05:27.107Z,36.85
2022-12-03T01:07:53.851Z,36.63
2022-12-03T01:10:23.095Z,34.15
2022-12-03T01:12:52.023Z,39.00
2022-12-03T01:15:18.850Z,42.78
2022-12-03T01:17:45.574Z,34.03
2022-12-03T01:20:14.548Z,37.05
2022-12-03T01:22:41.229Z,36.38
2022-12-03T01:25:08.217Z,36.15
2022-12-03T01:27:35.006Z,40.25
2022-12-03T01:30:01.647Z,33.65
2022-12-03T01:32:31.266Z,36.75
2022-12-03T01:34:57.977Z,39.85
2022-12-03T01:37:28.538Z,42.25
2022-12-03T01:39:55.175Z,37.38
2022-12-03T01:42:24.689Z,37.40
2022-12-03T01:44:57.508Z,35.92
2022-12-03T01:47:35.800Z,38.97
2022-12-03T01:50:05.010Z,40.35
2022-12-03T01:52:39.305Z,42.13
2022-12-03T01:55:18.258Z,39.63
2022-12-03T01:57:51.417Z,35.25
2022-12-03T02:00:23.513Z,36.40
2022-12-03T02:02:53.506Z,43.50
2022-12-03T02:05:28.059Z,36.10
2022-12-03T02:08:00.477Z,36.95
2022-12-03T02:10:36.940Z,38.92
2022-12-03T02:13:07.574Z,38.67
2022-12-03T02:15:39.330Z,38.00
2022-12-03T02:18:11.094Z,42.17
2022-12-03T02:20:51.752Z,44.20
2022-12-03T02:23:42.508Z,37.63
2022-12-03T02:26:11.811Z,37.75
2022-12-03T02:28:38.691Z,41.35
2022-12-03T02:31:05.473Z,39.20
2022-12-03T02:33:34.832Z,43.70
2022-12-03T02:36:03.884Z,41.08
2022-12-03T02:38:35.684Z,43.42
2022-12-03T02:41:09.461Z,41.28
2022-12-03T02:43:38.465Z,40.10
2022-12-03T02:46:08.006Z,37.33
2022-12-03T02:48:40.229Z,41.17
2022-12-03T02:51:11.016Z,40.13
2022-12-03T02:53:46.886Z,43.53
2022-12-03T02:56:20.801Z,40.30
2022-12-03T02:59:00.255Z,43.45
2022-12-03T03:01:29.393Z,35.75
2022-12-03T03:03:59.083Z,44.03
2022-12-03T03:06:30.439Z,39.83
2022-12-03T03:08:59.733Z,39.08
2022-12-03T03:11:27.134Z,35.75
2022-12-03T03:13:54.057Z,45.10
2022-12-03T03:16:21.015Z,39.08
2022-12-03T03:18:48.194Z,40.88
2022-12-03T03:21:14.765Z,39.65
2022-12-03T03:23:41.310Z,43.10
2022-12-03T03:26:11.376Z,44.70
2022-12-03T03:28:42.723Z,42.85
2022-12-03T03:31:16.076Z,39.53
2022-12-03T03:33:45.675Z,41.08
2022-12-03T03:36:16.129Z,44.60
2022-12-03T03:38:42.844Z,40.08
2022-12-03T03:41:11.408Z,42.25
2022-12-03T03:43:40.026Z,42.47
2022-12-03T03:46:09.665Z,41.35
2022-12-03T03:48:36.533Z,40.60
2022-12-03T03:51:09.577Z,41.22
2022-12-03T03:53:47.804Z,42.15
2022-12-03T03:56:32.544Z,42.08
2022-12-03T03:58:59.383Z,41.05
2022-12-03T04:01:26.871Z,40.92
2022-12-03T04:03:57.201Z,36.70
2022-12-03T04:06:23.919Z,36.72
2022-12-03T04:08:50.516Z,33.55
2022-12-03T04:11:35.583Z,38.78
2022-12-03T04:14:02.665Z,39.45
2022-12-03T04:16:29.347Z,39.60
2022-12-03T04:19:03.187Z,36.88
2022-12-03T04:21:48.275Z,36.33
2022-12-03T04:24:14.858Z,39.30
2022-12-03T04:27:00.028Z,36.55
2022-12-03T04:29:26.680Z,39.17
2022-12-03T04:32:14.762Z,37.83
2022-12-03T04:34:59.676Z,38.25
2022-12-03T04:37:30.673Z,38.80
2022-12-03T04:39:59.633Z,38.97
2022-12-03T04:42:28.386Z,34.97
2022-12-03T04:44:58.432Z,41.03
2022-12-03T04:47:29.847Z,36.40
2022-12-03T04:49:59.068Z,40.38
2022-12-03T04:52:25.584Z,38.15
2022-12-03T04:54:54.792Z,43.40
2022-12-03T04:57:24.111Z,43.03
2022-12-03T04:59:52.880Z,39.80
2022-12-03T05:02:21.795Z,39.33
2022-12-03T05:04:48.353Z,42.63
2022-12-03T05:07:14.987Z,43.50
2022-12-03T05:09:41.613Z,40.17
2022-12-03T05:12:08.258Z,41.70
2022-12-03T05:14:34.877Z,40.63
2022-12-03T05:17:01.563Z,40.40
2022-12-03T05:19:48.128Z,39.97
2022-12-03T05:22:14.645Z,43.63
2022-12-03T05:24:43.365Z,42.42
2022-12-03T05:27:12.323Z,45.05
2022-12-03T05:29:43.686Z,41.17
2022-12-03T05:32:15.246Z,45.10
2022-12-03T05:34:41.779Z,46.78
2022-12-03T05:37:11.099Z,43.22
2022-12-03T05:39:37.681Z,42.75
2022-12-03T05:42:23.596Z,38.42
2022-12-03T05:44:52.543Z,42.22
2022-12-03T05:47:21.555Z,39.50
2022-12-03T05:49:50.539Z,44.55
2022-12-03T05:52:17.060Z,36.83
2022-12-03T05:54:43.591Z,33.40
2022-12-03T05:57:10.442Z,36.67
2022-12-03T05:59:39.378Z,38.25
2022-12-03T06:02:06.054Z,34.10
2022-12-03T06:04:32.662Z,43.25
2022-12-03T06:07:02.233Z,35.90
2022-12-03T06:09:28.761Z,33.42
2022-12-03T06:11:55.663Z,35.88
2022-12-03T06:14:24.764Z,41.85
2022-12-03T06:16:51.258Z,43.53
2022-12-03T06:19:17.967Z,42.47
2022-12-03T06:21:46.855Z,46.13
2022-12-03T06:24:13.458Z,41.42
2022-12-03T06:26:40.078Z,42.55
2022-12-03T06:29:11.376Z,36.95
2022-12-03T06:31:40.414Z,38.53
2022-12-03T06:34:07.139Z,34.58
2022-12-03T06:36:36.031Z,44.83
2022-12-03T06:39:02.551Z,50.85
2022-12-03T06:41:31.437Z,38.72
2022-12-03T06:43:58.068Z,37.90
2022-12-03T06:46:27.191Z,36.20
2022-12-03T06:48:53.782Z,35.10
2022-12-03T06:51:22.543Z,38.03
2022-12-03T06:53:51.428Z,36.20
2022-12-03T06:56:22.064Z,34.88
2022-12-03T06:58:49.109Z,33.55
2022-12-03T07:01:18.148Z,35.92
2022-12-03T07:03:47.195Z,34.63
2022-12-03T07:06:14.166Z,37.65
2022-12-03T07:08:43.312Z,39.33
2022-12-03T07:11:28.534Z,38.75
2022-12-03T07:13:56.937Z,44.63
2022-12-03T07:16:29.464Z,41.28
2022-12-03T07:18:56.054Z,37.83
2022-12-03T07:21:22.663Z,40.83
2022-12-03T07:23:51.544Z,41.47
2022-12-03T07:26:18.115Z,38.38
2022-12-03T07:28:44.771Z,41.70
2022-12-03T07:31:11.362Z,36.08
2022-12-03T07:33:37.960Z,37.88
2022-12-03T07:36:04.556Z,38.88
2022-12-03T07:38:31.623Z,38.38
2022-12-03T07:40:58.219Z,42.35
2022-12-03T07:43:27.457Z,42.78
2022-12-03T07:45:54.054Z,38.60
2022-12-03T07:48:20.795Z,38.88
2022-12-03T07:50:49.676Z,40.70
2022-12-03T07:53:16.305Z,37.63
2022-12-03T07:55:45.360Z,40.72
2022-12-03T07:58:12.064Z,38.42
2022-12-03T08:00:38.773Z,37.78
2022-12-03T08:03:07.936Z,41.28
2022-12-03T08:05:34.470Z,42.83
2022-12-03T08:08:01.372Z,43.80
2022-12-03T08:10:28.500Z,37.92
2022-12-03T08:12:59.174Z,41.83
2022-12-03T08:15:32.239Z,45.08
2022-12-03T08:18:12.303Z,37.10
2022-12-03T08:20:40.747Z,38.63
2022-12-03T08:23:13.604Z,34.42
2022-12-03T08:25:40.135Z,43.13
2022-12-03T08:32:29.769Z,43.67
2022-12-03T08:35:02.221Z,38.45
2022-12-03T08:43:55.254Z,37.00
2022-12-03T08:50:42.404Z,35.97
2022-12-03T08:53:27.068Z,41.58
2022-12-03T08:55:59.159Z,43.20
2022-12-03T08:58:39.501Z,41.92
2022-12-03T09:01:24.578Z,41.38
2022-12-03T09:04:14.320Z,41.67
2022-12-03T09:06:55.908Z,36.47
2022-12-03T09:09:34.945Z,35.17
2022-12-03T09:12:03.842Z,47.00
2022-12-03T09:14:32.685Z,36.03
2022-12-03T09:17:01.806Z,40.97
2022-12-03T09:19:31.158Z,33.50
2022-12-03T09:21:57.962Z,36.22
2022-12-03T09:24:24.592Z,34.97
2022-12-03T09:26:55.707Z,32.80
2022-12-03T09:29:24.334Z,38.00
2022-12-03T09:31:55.828Z,37.65
2022-12-03T09:34:24.634Z,34.03
2022-12-03T09:36:57.197Z,45.08
2022-12-03T09:39:23.677Z,36.85
2022-12-03T09:46:23.889Z,32.30
2022-12-03T09:48:50.657Z,29.42
2022-12-03T09:51:17.950Z,42.63
2022-12-03T09:53:44.934Z,33.10
2022-12-03T09:56:19.326Z,34.92
2022-12-03T09:58:45.978Z,33.17
2022-12-03T10:01:15.131Z,32.47
2022-12-03T10:03:50.642Z,29.60
2022-12-03T10:08:54.466Z,28.17
2022-12-03T10:11:24.349Z,29.40
2022-12-03T10:13:54.040Z,28.65
2022-12-03T10:16:21.386Z,31.75
2022-12-03T10:18:59.260Z,33.22
2022-12-03T10:21:45.709Z,29.95
2022-12-03T10:24:41.402Z,30.35
2022-12-03T10:27:24.248Z,30.58
2022-12-03T10:29:59.268Z,31.83
2022-12-03T10:32:42.434Z,30.92
2022-12-03T10:35:15.735Z,34.08
2022-12-03T10:38:02.606Z,26.67
2022-12-03T10:40:36.502Z,31.65
2022-12-03T10:43:19.613Z,27.10
2022-12-03T10:45:49.488Z,31.27
2022-12-03T10:48:25.457Z,31.23
2022-12-03T10:51:07.090Z,28.95
2022-12-03T11:00:23.018Z,29.88
2022-12-03T11:02:56.382Z,26.38
2022-12-03T11:05:28.561Z,26.95
2022-12-03T11:07:55.721Z,26.35
2022-12-03T11:10:22.383Z,28.00
2022-12-03T11:13:26.202Z,25.52
2022-12-03T11:15:55.977Z,23.50
2022-12-03T11:18:34.673Z,22.05
2022-12-03T11:21:14.533Z,20.70
2022-12-03T11:23:47.123Z,22.95
2022-12-03T11:26:19.288Z,22.73
2022-12-03T11:28:46.334Z,25.55
2022-12-03T11:31:31.334Z,21.60
2022-12-03T11:34:19.576Z,21.60
2022-12-03T11:37:11.351Z,22.15
2022-12-03T11:39:49.851Z,22.95
2022-12-03T11:42:32.218Z,25.27
2022-12-03T11:45:05.271Z,23.23
2022-12-03T11:47:45.593Z,22.40
2022-12-03T11:50:18.127Z,24.20
2022-12-03T11:52:49.164Z,26.23
2022-12-03T11:55:25.311Z,22.77
2022-12-03T11:57:58.951Z,21.75
2022-12-03T12:00:28.467Z,22.27
2022-12-03T12:02:58.777Z,23.48
2022-12-03T12:05:34.081Z,23.13
2022-12-03T12:08:05.732Z,22.00
2022-12-03T12:10:41.946Z,20.90
2022-12-03T12:13:28.100Z,21.58
2022-12-03T12:16:00.684Z,24.77
2022-12-03T12:18:36.745Z,22.80
2022-12-03T12:21:41.399Z,23.90
2022-12-03T12:24:30.065Z,25.42
2022-12-03T12:26:58.899Z,19.70
2022-12-03T12:29:25.538Z,23.08
2022-12-03T12:31:58.146Z,20.08
2022-12-03T12:34:27.415Z,22.77
2022-12-03T12:39:28.857Z,22.45
2022-12-03T12:41:58.011Z,26.27
2022-12-03T12:44:27.411Z,24.20
2022-12-03T12:47:01.605Z,21.17
2022-12-03T12:49:32.175Z,20.92
2022-12-03T12:51:58.761Z,23.00
2022-12-03T12:54:30.201Z,21.23
2022-12-03T12:56:56.873Z,24.35
2022-12-03T12:59:26.165Z,21.35
2022-12-03T13:01:52.915Z,24.27
2022-12-03T13:04:27.767Z,22.25
2022-12-03T13:06:54.803Z,19.60
2022-12-03T13:09:25.056Z,24.50
2022-12-03T13:11:59.138Z,20.50
2022-12-03T13:14:30.454Z,24.27
2022-12-03T13:17:00.441Z,22.98
2022-12-03T13:19:46.642Z,22.55
2022-12-03T13:22:20.763Z,26.45
2022-12-03T13:24:50.965Z,23.00
2022-12-03T13:27:17.499Z,20.75
2022-12-03T13:30:00.940Z,22.08
2022-12-03T13:32:33.281Z,21.27
2022-12-03T13:35:19.169Z,22.30
2022-12-03T13:37:48.041Z,22.98
2022-12-03T13:40:26.509Z,21.48
2022-12-03T13:42:57.910Z,21.17
2022-12-03T13:45:42.138Z,20.92
2022-12-03T13:48:33.972Z,23.50
2022-12-03T13:51:11.807Z,23.58
2022-12-03T13:53:43.345Z,20.50
2022-12-03T13:56:29.696Z,20.45
2022-12-03T13:59:01.216Z,21.80
2022-12-03T14:01:31.118Z,25.00
2022-12-03T14:03:57.820Z,22.40
2022-12-03T14:06:25.371Z,20.80
2022-12-03T14:08:56.858Z,21.73
2022-12-03T14:11:42.139Z,23.70
2022-12-03T14:14:11.399Z,22.60
2022-12-03T14:19:09.391Z,19.23
2022-12-03T14:21:38.315Z,19.38
2022-12-03T14:24:07.736Z,19.35
2022-12-03T14:26:39.260Z,21.90
2022-12-03T14:29:09.040Z,19.13
2022-12-03T14:31:40.675Z,17.15
2022-12-03T14:34:12.162Z,20.08
2022-12-03T14:36:41.103Z,22.90
2022-12-03T14:39:07.850Z,20.95
2022-12-03T14:41:52.864Z,22.98
2022-12-03T14:44:24.255Z,19.05
2022-12-03T14:46:56.606Z,26.30
2022-12-03T14:49:23.879Z,19.92
2022-12-03T14:51:52.895Z,24.48
2022-12-03T14:54:19.522Z,22.15
2022-12-03T14:56:46.177Z,19.73
2022-12-03T14:59:15.309Z,22.95
2022-12-03T15:01:44.001Z,20.83
2022-12-03T15:04:13.346Z,20.90
2022-12-03T15:09:06.794Z,23.00
2022-12-03T15:11:33.415Z,20.67
2022-12-03T15:14:02.377Z,18.52
2022-12-03T15:16:29.088Z,24.88
2022-12-03T15:18:55.858Z,19.90
2022-12-03T15:21:24.986Z,23.73
2022-12-03T15:23:53.858Z,19.80
2022-12-03T15:26:25.317Z,24.27
2022-12-03T15:29:02.992Z,22.95
2022-12-03T15:31:31.044Z,19.77
2022-12-03T15:33:57.691Z,17.58
2022-12-03T15:36:29.236Z,18.40
2022-12-03T15:38:56.835Z,20.20
2022-12-03T15:41:31.264Z,18.17
2022-12-03T15:44:02.685Z,18.90
2022-12-03T15:46:31.464Z,23.48
2022-12-03T15:48:58.344Z,22.08
2022-12-03T15:51:27.314Z,21.38
2022-12-03T15:53:56.345Z,18.42
2022-12-03T15:56:28.314Z,22.00
2022-12-03T15:58:55.093Z,19.80
2022-12-03T16:01:23.976Z,19.02
2022-12-03T16:03:55.348Z,20.00
2022-12-03T16:06:24.582Z,22.58
2022-12-03T16:08:53.753Z,21.90
2022-12-03T16:11:22.647Z,18.08
2022-12-03T16:13:49.230Z,23.88
2022-12-03T16:16:20.624Z,24.88
2022-12-03T16:18:49.571Z,22.30
2022-12-03T16:21:26.419Z,23.45
2022-12-03T16:23:59.336Z,22.20
2022-12-03T16:26:35.283Z,23.45
2022-12-03T16:36:43.066Z,23.58
2022-12-03T16:39:14.516Z,24.45
2022-12-03T16:41:46.578Z,23.60
2022-12-03T16:44:57.645Z,25.10
2022-12-03T16:47:28.046Z,26.23
2022-12-03T16:54:43.921Z,21.73
2022-12-03T16:57:10.577Z,23.75
2022-12-03T16:59:37.257Z,24.27
2022-12-03T17:02:04.148Z,26.48
2022-12-03T17:04:30.955Z,26.40
2022-12-03T17:06:57.508Z,26.77
2022-12-03T17:09:24.590Z,27.65
2022-12-03T17:11:51.269Z,25.73
2022-12-03T17:14:18.111Z,25.63
2022-12-03T17:16:49.401Z,29.25
2022-12-03T17:19:23.305Z,29.77
2022-12-03T17:21:49.973Z,27.15
2022-12-03T17:24:16.789Z,29.20
2022-12-03T17:26:44.803Z,26.65
2022-12-03T17:29:11.365Z,29.23
2022-12-03T17:31:41.938Z,27.88
2022-12-03T17:34:09.633Z,32.78
2022-12-03T17:36:36.305Z,27.15
2022-12-03T17:39:06.335Z,33.03
2022-12-03T17:41:32.951Z,30.13
2022-12-03T17:43:59.519Z,29.00
2022-12-03T17:46:28.485Z,28.80
2022-12-03T17:48:57.637Z,31.48
2022-12-03T17:51:29.467Z,29.30
2022-12-03T17:53:56.150Z,31.23
2022-12-03T17:56:22.885Z,30.48
2022-12-03T17:58:49.437Z,29.48
2022-12-03T18:01:23.939Z,29.98
2022-12-03T18:03:58.051Z,31.95
2022-12-03T18:06:26.427Z,29.30
2022-12-03T18:08:53.064Z,30.98
2022-12-03T18:11:22.533Z,35.10
2022-12-03T18:13:51.758Z,28.20
2022-12-03T18:16:18.443Z,32.25
2022-12-03T18:18:48.090Z,29.77
2022-12-03T18:21:19.334Z,34.20
2022-12-03T18:23:48.268Z,37.28
2022-12-03T18:26:17.298Z,32.92
2022-12-03T18:28:46.347Z,32.28
2022-12-03T18:31:19.238Z,34.70
2022-12-03T18:33:46.046Z,34.33
2022-12-03T18:36:21.027Z,39.22
2022-12-03T18:38:55.570Z,34.80
2022-12-03T18:41:28.418Z,33.25
2022-12-03T18:43:55.565Z,32.88
2022-12-03T18:46:51.916Z,33.85
2022-12-03T18:49:13.832Z,40.97
2022-12-03T18:51:40.529Z,36.70
2022-12-03T18:54:12.596Z,34.60
2022-12-03T18:56:42.468Z,33.60
2022-12-03T18:59:12.535Z,40.47
2022-12-03T19:01:39.478Z,32.92
2022-12-03T19:04:06.124Z,37.63
2022-12-03T19:06:32.733Z,36.38
2022-12-03T19:09:01.957Z,35.67
2022-12-03T19:11:30.804Z,33.78
2022-12-03T19:13:59.174Z,38.55
2022-12-03T19:16:31.826Z,34.63
2022-12-03T19:19:00.875Z,34.22
2022-12-03T19:21:32.256Z,34.20
2022-12-03T19:24:25.505Z,34.95
2022-12-03T19:26:47.646Z,34.05
2022-12-03T19:29:14.255Z,38.55
2022-12-03T19:31:43.315Z,38.53
2022-12-03T19:34:10.074Z,32.08
2022-12-03T19:36:41.347Z,34.85
2022-12-03T19:39:10.298Z,38.85
2022-12-03T19:41:37.073Z,33.28
2022-12-03T19:44:10.749Z,33.75
2022-12-03T19:46:37.594Z,37.40
2022-12-03T19:49:04.982Z,35.80
2022-12-03T19:51:35.111Z,39.17
2022-12-03T19:54:09.832Z,40.67
2022-12-03T19:56:41.615Z,35.38
2022-12-03T19:59:10.550Z,38.33
2022-12-03T20:01:43.681Z,37.63
2022-12-03T20:04:14.197Z,33.55
2022-12-03T20:06:43.046Z,34.28
2022-12-03T20:09:24.317Z,40.25
2022-12-03T20:11:51.755Z,38.33
2022-12-03T20:14:20.876Z,34.17
2022-12-03T20:16:52.919Z,36.78
2022-12-03T20:19:19.638Z,32.80
2022-12-03T20:21:51.132Z,36.33
2022-12-03T20:24:20.238Z,37.42
2022-12-03T20:26:49.101Z,33.92
2022-12-03T20:29:18.271Z,34.20
2022-12-03T20:31:45.090Z,35.08
2022-12-03T20:34:12.011Z,39.42
2022-12-03T20:36:39.562Z,36.28
2022-12-03T20:39:10.299Z,34.83
2022-12-03T20:41:37.697Z,35.97
2022-12-03T20:44:09.862Z,37.13
2022-12-03T20:46:38.916Z,34.55
2022-12-03T20:49:10.476Z,36.83
2022-12-03T20:51:39.720Z,38.50
2022-12-03T20:54:06.290Z,35.70
2022-12-03T20:56:39.610Z,34.88
2022-12-03T20:59:10.886Z,38.42
2022-12-03T21:01:38.725Z,38.03
2022-12-03T21:04:09.297Z,35.92
2022-12-03T21:06:37.520Z,35.45
2022-12-03T21:09:06.927Z,35.75
2022-12-03T21:11:35.955Z,33.78
2022-12-03T21:14:02.822Z,39.05
2022-12-03T21:17:07.971Z,37.50
2022-12-03T21:19:28.845Z,37.22
2022-12-03T21:21:57.845Z,35.88
2022-12-03T21:24:24.629Z,38.42
2022-12-03T21:26:51.192Z,42.10
2022-12-03T21:29:20.170Z,35.88
2022-12-03T21:31:49.165Z,37.35
2022-12-03T21:34:20.909Z,37.97
2022-12-03T21:36:50.085Z,38.80
2022-12-03T21:39:16.710Z,32.03
2022-12-03T21:42:19.162Z,35.40
2022-12-03T21:44:30.021Z,30.48
2022-12-03T21:47:11.391Z,42.90
2022-12-03T21:49:42.896Z,38.53
2022-12-03T21:52:10.137Z,36.45
2022-12-03T21:54:39.156Z,34.63
2022-12-03T21:57:06.084Z,34.50
2022-12-03T21:59:35.119Z,43.88
2022-12-03T22:02:11.651Z,43.30
2022-12-03T22:04:41.158Z,34.05
2022-12-03T22:09:41.563Z,35.22
2022-12-03T22:12:08.406Z,42.45
2022-12-03T22:14:35.116Z,36.42
2022-12-03T22:17:01.777Z,39.58
2022-12-03T22:19:31.278Z,37.90
2022-12-03T22:21:58.074Z,37.47
2022-12-03T22:24:27.203Z,38.58
2022-12-03T22:26:54.982Z,38.28
2022-12-03T22:29:21.799Z,39.05
2022-12-03T22:31:48.558Z,35.90
2022-12-03T22:34:15.307Z,38.60
2022-12-03T22:36:41.967Z,39.40
2022-12-03T22:39:11.034Z,36.72
2022-12-03T22:41:40.526Z,38.03
2022-12-03T22:44:11.917Z,38.72
2022-12-03T22:46:38.719Z,39.72
2022-12-03T22:49:07.555Z,37.10
2022-12-03T22:51:39.691Z,37.00
2022-12-03T22:54:06.773Z,39.60
2022-12-03T22:56:35.793Z,40.70
2022-12-03T22:59:02.943Z,33.47
2022-12-03T23:01:36.224Z,37.55
2022-12-03T23:04:06.146Z,35.65
2022-12-03T23:06:39.096Z,36.30
2022-12-03T23:09:09.439Z,35.95
2022-12-03T23:11:36.338Z,40.63
2022-12-03T23:14:07.846Z,36.22
2022-12-03T23:16:34.633Z,37.35
2022-12-03T23:19:07.111Z,36.35
2022-12-03T23:21:37.993Z,36.55
2022-12-03T23:24:08.326Z,35.05
2022-12-03T23:26:38.716Z,37.40
2022-12-03T23:29:08.696Z,36.67
2022-12-03T23:31:35.584Z,36.83
2022-12-03T23:34:05.242Z,34.85
2022-12-03T23:36:35.407Z,36.78
2022-12-03T23:39:02.183Z,37.05
2022-12-03T23:41:34.066Z,36.58
2022-12-03T23:44:00.661Z,34.47
2022-12-03T23:46:29.842Z,36.40
2022-12-03T23:48:58.991Z,38.40
2022-12-03T23:51:28.872Z,35.50
2022-12-03T23:53:56.362Z,34.60
2022-12-03T23:56:27.238Z,36.22
2022-12-03T23:58:53.824Z,38.55
